Time;durP1;ratioP1;P1;durP2;ratioP2;P2;SDS_P1;SDS_P2;PMS_P1;PMS_P2;Temp;Humidity;BMP_temperature;BMP_pressure;BME280_temperature;BME280_humidity;BME280_pressure;Samples;Min_cycle;Max_cycle;Signal;HPM_P1;HPM_P2
2022/06/02 00:00:05;;;;;;;;;;;;;;;21.20;69.55;99722.81;5050145;28;20404;-85
2022/06/02 00:02:36;;;;;;;;;;;;;;;21.35;69.04;99727.25;5039375;28;20019;-84
2022/06/02 00:05:15;;;;;;;;;;;;;;;21.25;69.50;99724.25;5032517;28;20740;-85
2022/06/02 00:07:40;;;;;;;;;;;;;;;21.41;68.65;99726.91;5041345;28;19928;-84
2022/06/02 00:10:24;;;;;;;;;;;;;;;21.18;68.45;99727.38;5043546;28;19938;-84
2022/06/02 00:12:55;;;;;;;;;;;;;;;20.98;68.79;99725.88;5050073;28;19913;-85
2022/06/02 00:15:31;;;;;;;;;;;;;;;20.96;68.64;99736.69;5049338;28;20554;-84
2022/06/02 00:17:56;;;;;;;;;;;;;;;21.03;68.40;99735.38;5048967;28;20011;-84
2022/06/02 00:20:22;;;;;;;;;;;;;;;20.93;68.21;99734.19;5034211;28;20062;-85
2022/06/02 00:23:09;;;;;;;;;;;;;;;20.88;67.97;99747.84;5033604;28;19921;-85
2022/06/02 00:25:37;;;;;;;;;;;;;;;20.94;68.27;99746.63;5048281;28;19927;-84
2022/06/02 00:28:14;;;;;;;;;;;;;;;20.93;68.17;99744.91;5029873;28;19960;-85
2022/06/02 00:30:54;;;;;;;;;;;;;;;20.90;67.93;99734.34;5029027;28;19920;-85
2022/06/02 00:33:37;;;;;;;;;;;;;;;20.86;67.80;99747.06;5029845;28;19924;-85
2022/06/02 00:36:29;;;;;;;;;;;;;;;20.86;68.13;99741.69;5029500;28;19928;-86
2022/06/02 00:38:57;;;;;;;;;;;;;;;20.90;68.53;99740.56;5002605;28;19921;-84
2022/06/02 00:41:41;;;;;;;;;;;;;;;20.73;68.54;99724.59;5029663;28;19917;-84
2022/06/02 00:44:29;;;;;;;;;;;;;;;20.93;67.65;99743.09;5028839;28;19921;-84
2022/06/02 00:46:59;;;;;;;;;;;;;;;20.86;68.07;99738.16;4995621;28;19917;-83
2022/06/02 00:49:39;;;;;;;;;;;;;;;20.79;67.98;99736.75;5028608;28;20470;-83
2022/06/02 00:52:13;;;;;;;;;;;;;;;20.65;68.49;99734.88;5028210;28;19924;-83
2022/06/02 00:57:32;;;;;;;;;;;;;;;20.34;69.95;99733.84;5025501;28;19974;-84
2022/06/02 01:00:03;;;;;;;;;;;;;;;20.48;70.29;99722.38;5028500;28;19978;-84
2022/06/02 01:02:32;;;;;;;;;;;;;;;20.26;71.27;99728.06;5029267;28;19995;-84
2022/06/02 01:05:00;;;;;;;;;;;;;;;20.32;71.26;99733.09;5028957;28;19921;-84
2022/06/02 01:07:26;;;;;;;;;;;;;;;20.30;71.12;99725.13;5028616;28;20399;-84
2022/06/02 01:10:00;;;;;;;;;;;;;;;20.40;70.01;99720.13;5028005;28;19967;-84
2022/06/02 01:12:34;;;;;;;;;;;;;;;20.24;70.02;99716.56;5028799;28;19920;-84
2022/06/02 01:15:32;;;;;;;;;;;;;;;20.30;70.15;99719.78;5028249;28;20663;-84
2022/06/02 01:18:20;;;;;;;;;;;;;;;20.41;69.84;99719.19;4994315;28;19916;-85
2022/06/02 01:20:55;;;;;;;;;;;;;;;20.41;69.50;99712.97;5029483;28;19917;-84
2022/06/02 01:23:41;;;;;;;;;;;;;;;20.45;69.19;99707.34;5028261;28;19956;-84
2022/06/02 01:26:21;;;;;;;;;;;;;;;20.37;69.81;99706.91;5028716;28;19920;-84
2022/06/02 01:29:09;;;;;;;;;;;;;;;20.48;69.22;99695.59;5040349;28;19924;-84
2022/06/02 01:31:38;;;;;;;;;;;;;;;20.37;68.66;99702.44;5031473;28;19920;-84
2022/06/02 01:34:21;;;;;;;;;;;;;;;20.48;67.93;99704.50;5030251;28;20017;-83
2022/06/02 01:36:47;;;;;;;;;;;;;;;20.41;68.13;99704.94;5048542;28;20314;-84
2022/06/02 01:39:35;;;;;;;;;;;;;;;20.27;67.98;99705.69;5048178;28;19923;-84
2022/06/02 01:42:17;;;;;;;;;;;;;;;20.24;67.69;99712.06;5038887;28;19916;-83
2022/06/02 01:45:01;;;;;;;;;;;;;;;20.25;67.96;99710.25;5047107;28;19991;-84
2022/06/02 01:47:31;;;;;;;;;;;;;;;20.26;68.43;99718.19;5038423;28;21375;-84
2022/06/02 01:50:08;;;;;;;;;;;;;;;20.20;68.75;99705.16;5029938;28;19917;-83
2022/06/02 01:52:43;;;;;;;;;;;;;;;20.22;68.38;99713.97;5027405;28;19916;-83
2022/06/02 01:55:26;;;;;;;;;;;;;;;20.35;67.47;99719.53;5028759;28;20009;-83
2022/06/02 01:57:52;;;;;;;;;;;;;;;20.35;67.01;99717.69;5029274;28;19943;-83
2022/06/02 02:00:21;;;;;;;;;;;;;;;20.26;67.48;99723.56;5029978;28;19917;-83
2022/06/02 02:02:57;;;;;;;;;;;;;;;20.21;67.91;99714.91;5030437;28;20318;-83
2022/06/02 02:05:35;;;;;;;;;;;;;;;20.26;67.51;99720.03;5028430;28;19949;-83
2022/06/02 02:08:09;;;;;;;;;;;;;;;20.13;68.12;99717.16;5039362;28;20301;-83
2022/06/02 02:10:52;;;;;;;;;;;;;;;20.07;68.49;99718.34;5051415;28;19921;-83
2022/06/02 02:13:17;;;;;;;;;;;;;;;20.11;69.02;99722.59;5047300;28;19970;-83
2022/06/02 02:15:49;;;;;;;;;;;;;;;20.14;68.80;99711.72;5047232;28;19916;-83
2022/06/02 02:18:24;;;;;;;;;;;;;;;20.10;69.41;99717.31;5035937;28;20027;-83
2022/06/02 02:21:03;;;;;;;;;;;;;;;20.07;69.45;99728.19;5027956;28;19920;-83
2022/06/02 02:23:31;;;;;;;;;;;;;;;19.97;69.48;99725.13;5026914;28;20307;-83
2022/06/02 02:25:56;;;;;;;;;;;;;;;19.91;69.87;99729.03;5027453;28;19924;-83
2022/06/02 02:28:37;;;;;;;;;;;;;;;20.03;69.72;99722.13;5028465;28;20087;-83
2022/06/02 02:31:05;;;;;;;;;;;;;;;20.14;69.24;99726.91;5026446;28;19928;-84
2022/06/02 02:33:34;;;;;;;;;;;;;;;20.18;69.30;99715.94;5026229;28;19928;-83
2022/06/02 02:36:18;;;;;;;;;;;;;;;20.10;69.37;99720.84;5028020;28;20655;-83
2022/06/02 02:38:59;;;;;;;;;;;;;;;19.56;71.30;99710.28;5026464;28;19956;-83
2022/06/02 02:41:33;;;;;;;;;;;;;;;19.44;71.82;99717.13;5011369;28;20403;-83
2022/06/02 02:44:17;;;;;;;;;;;;;;;19.63;71.49;99710.81;5025455;28;19951;-83
2022/06/02 02:46:53;;;;;;;;;;;;;;;19.68;70.87;99716.81;5018571;28;19925;-84
2022/06/02 02:49:19;;;;;;;;;;;;;;;19.67;70.77;99720.44;5026657;28;19913;-83
2022/06/02 02:52:03;;;;;;;;;;;;;;;19.67;70.60;99720.44;5009645;28;20855;-84
2022/06/02 02:54:33;;;;;;;;;;;;;;;19.77;70.72;99720.84;5009446;28;20409;-84
2022/06/02 02:57:05;;;;;;;;;;;;;;;19.71;70.33;99719.34;5008469;28;19921;-84
2022/06/02 02:59:45;;;;;;;;;;;;;;;19.60;71.06;99714.53;5007853;28;19924;-84
2022/06/02 03:02:20;;;;;;;;;;;;;;;19.56;71.06;99718.31;5016104;28;20387;-88
2022/06/02 03:04:51;;;;;;;;;;;;;;;19.54;70.77;99725.56;5027201;28;19917;-86
2022/06/02 03:07:18;;;;;;;;;;;;;;;19.58;70.91;99737.81;5008308;28;19925;-85
2022/06/02 03:09:49;;;;;;;;;;;;;;;19.66;70.53;99729.41;5026627;28;19920;-87
2022/06/02 03:12:39;;;;;;;;;;;;;;;19.50;70.88;99727.50;5028189;28;19924;-87
2022/06/02 03:15:07;;;;;;;;;;;;;;;19.43;70.95;99739.50;5029404;28;19979;-85
2022/06/02 03:17:51;;;;;;;;;;;;;;;19.56;70.75;99738.88;5031075;28;19912;-84
2022/06/02 03:20:19;;;;;;;;;;;;;;;19.64;70.50;99736.66;5031350;28;19921;-86
2022/06/02 03:23:13;;;;;;;;;;;;;;;19.68;70.46;99740.91;5031256;28;19913;-85
2022/06/02 03:25:43;;;;;;;;;;;;;;;19.63;70.71;99735.78;5030914;28;19979;-82
2022/06/02 03:28:22;;;;;;;;;;;;;;;19.53;71.18;99742.53;5030802;28;19921;-86
2022/06/02 03:30:57;;;;;;;;;;;;;;;19.49;71.77;99740.97;5030998;28;19917;-84
2022/06/02 03:33:32;;;;;;;;;;;;;;;19.45;72.53;99736.75;5030836;28;20074;-85
2022/06/02 03:36:13;;;;;;;;;;;;;;;19.54;72.14;99738.06;5012622;28;19921;-86
2022/06/02 03:38:38;;;;;;;;;;;;;;;19.56;71.49;99745.06;5029801;28;20391;-84
2022/06/02 03:41:22;;;;;;;;;;;;;;;19.75;71.33;99750.31;5031114;28;19924;-85
2022/06/02 03:43:54;;;;;;;;;;;;;;;19.87;70.86;99748.00;5012654;28;19913;-84
2022/06/02 03:46:19;;;;;;;;;;;;;;;20.02;70.65;99747.19;5030245;28;20051;-84
2022/06/02 03:49:04;;;;;;;;;;;;;;;20.05;70.06;99747.03;5030996;28;19996;-83
2022/06/02 03:51:47;;;;;;;;;;;;;;;20.14;69.89;99746.53;5030426;28;19917;-84
2022/06/02 03:54:31;;;;;;;;;;;;;;;20.14;69.67;99742.97;5029863;28;19921;-84
2022/06/02 03:57:15;;;;;;;;;;;;;;;20.10;70.17;99739.59;5030828;28;19944;-83
2022/06/02 03:59:46;;;;;;;;;;;;;;;20.27;69.37;99745.88;5030125;28;19920;-83
2022/06/02 04:02:14;;;;;;;;;;;;;;;20.36;69.72;99742.69;5030610;28;19920;-83
2022/06/02 04:05:06;;;;;;;;;;;;;;;20.44;68.84;99747.63;5029850;28;20182;-83
2022/06/02 04:07:42;;;;;;;;;;;;;;;20.59;68.72;99746.78;5006933;28;20015;-83
2022/06/02 04:10:25;;;;;;;;;;;;;;;20.67;67.78;99741.88;5030017;28;19978;-83
2022/06/02 04:15:59;;;;;;;;;;;;;;;21.03;67.17;99745.22;5020555;28;19978;-86
2022/06/02 04:18:43;;;;;;;;;;;;;;;21.26;66.81;99738.53;5029703;28;20011;-84
2022/06/02 04:21:18;;;;;;;;;;;;;;;21.26;67.02;99743.91;5029605;28;19917;-84
2022/06/02 04:23:46;;;;;;;;;;;;;;;21.31;67.00;99740.94;5011195;28;19975;-84
2022/06/02 04:26:14;;;;;;;;;;;;;;;21.43;66.09;99746.44;5030352;28;19913;-84
2022/06/02 04:28:45;;;;;;;;;;;;;;;21.60;66.87;99747.31;5047353;28;19927;-84
2022/06/02 04:31:21;;;;;;;;;;;;;;;21.59;66.00;99757.16;5052096;28;19929;-85
2022/06/02 04:34:10;;;;;;;;;;;;;;;21.49;65.28;99757.75;5046449;28;19974;-84
2022/06/02 04:36:54;;;;;;;;;;;;;;;21.72;65.59;99754.63;5045893;28;20000;-85
2022/06/02 04:39:34;;;;;;;;;;;;;;;21.41;65.70;99759.09;5046589;28;20454;-83
2022/06/02 04:42:06;;;;;;;;;;;;;;;21.76;65.61;99757.97;5046962;28;20338;-84
2022/06/02 04:44:35;;;;;;;;;;;;;;;22.30;63.71;99758.22;5047216;28;19966;-84
2022/06/02 04:47:12;;;;;;;;;;;;;;;22.21;62.51;99756.09;5049281;28;19917;-83
2022/06/02 04:49:55;;;;;;;;;;;;;;;22.32;64.62;99758.13;5048941;28;19952;-84
2022/06/02 04:52:21;;;;;;;;;;;;;;;22.21;62.93;99758.78;5049473;28;19917;-87
2022/06/02 04:54:52;;;;;;;;;;;;;;;22.62;63.31;99749.97;5032989;28;20160;-85
2022/06/02 04:57:38;;;;;;;;;;;;;;;23.10;60.38;99762.19;5029042;28;19971;-85
2022/06/02 05:00:12;;;;;;;;;;;;;;;23.24;60.26;99757.59;5039110;28;19927;-85
2022/06/02 05:02:43;;;;;;;;;;;;;;;23.24;61.51;99762.97;5030744;28;20023;-87
2022/06/02 05:05:15;;;;;;;;;;;;;;;23.04;59.73;99750.81;5049385;28;19923;-85
2022/06/02 05:07:47;;;;;;;;;;;;;;;23.21;59.34;99754.25;5049444;28;19986;-85
2022/06/02 05:10:18;;;;;;;;;;;;;;;23.28;59.59;99752.88;5048963;28;19928;-85
2022/06/02 05:12:58;;;;;;;;;;;;;;;23.30;59.91;99763.53;5029721;28;19920;-85
2022/06/02 05:15:42;;;;;;;;;;;;;;;23.34;60.07;99762.34;5049208;28;19987;-84
2022/06/02 05:18:23;;;;;;;;;;;;;;;23.24;59.32;99770.19;5049232;28;19939;-84
2022/06/02 05:20:48;;;;;;;;;;;;;;;23.30;58.96;99771.63;5049369;28;19912;-84
2022/06/02 05:23:32;;;;;;;;;;;;;;;23.39;59.94;99761.09;5048796;28;20301;-84
2022/06/02 05:26:12;;;;;;;;;;;;;;;23.92;58.67;99769.19;5045172;28;19916;-85
2022/06/02 05:28:48;;;;;;;;;;;;;;;24.13;59.82;99761.44;5029438;28;20027;-84
2022/06/02 05:31:14;;;;;;;;;;;;;;;24.37;56.04;99762.50;5042970;28;19928;-84
2022/06/02 05:33:58;;;;;;;;;;;;;;;24.44;56.60;99764.66;5048184;28;19920;-83
2022/06/02 05:36:35;;;;;;;;;;;;;;;24.60;56.30;99760.88;5048608;28;19938;-84
2022/06/02 05:39:04;;;;;;;;;;;;;;;25.01;55.80;99763.25;5049307;28;19919;-83
2022/06/02 05:41:29;;;;;;;;;;;;;;;24.97;54.93;99759.03;5048486;28;19920;-83
2022/06/02 05:43:57;;;;;;;;;;;;;;;25.05;55.45;99758.47;5047880;28;20295;-83
2022/06/02 05:46:22;;;;;;;;;;;;;;;25.16;53.90;99763.94;5029144;28;20333;-84
2022/06/02 05:48:58;;;;;;;;;;;;;;;25.52;53.30;99766.72;5030160;28;19913;-83
2022/06/02 05:51:29;;;;;;;;;;;;;;;25.59;52.37;99754.44;5048528;28;19921;-83
2022/06/02 05:53:54;;;;;;;;;;;;;;;25.65;52.17;99761.22;5047517;28;19936;-84
2022/06/02 05:56:26;;;;;;;;;;;;;;;26.17;51.48;99762.59;5047954;28;20699;-84
2022/06/02 05:58:54;;;;;;;;;;;;;;;26.40;51.08;99770.69;5047586;28;20366;-84
2022/06/02 06:01:39;;;;;;;;;;;;;;;26.41;49.61;99769.72;5047300;28;20011;-84
2022/06/02 06:04:23;;;;;;;;;;;;;;;27.13;50.10;99773.84;5047877;28;20309;-84
2022/06/02 06:06:53;;;;;;;;;;;;;;;26.90;49.97;99764.91;5048120;28;20446;-84
2022/06/02 06:09:36;;;;;;;;;;;;;;;26.99;49.72;99764.16;5047444;28;20318;-83
2022/06/02 06:12:02;;;;;;;;;;;;;;;27.07;47.74;99760.81;5048145;28;19962;-84
2022/06/02 06:14:43;;;;;;;;;;;;;;;27.45;47.67;99756.75;5048328;28;20009;-84
2022/06/02 06:17:38;;;;;;;;;;;;;;;27.21;49.84;99763.22;5048070;28;20330;-84
2022/06/02 06:20:12;;;;;;;;;;;;;;;28.07;46.78;99752.38;5034805;28;19917;-85
2022/06/02 06:22:38;;;;;;;;;;;;;;;28.58;45.63;99731.63;5047953;28;19963;-85
2022/06/02 06:25:03;;;;;;;;;;;;;;;28.60;46.20;99751.34;5047653;28;19955;-85
2022/06/02 06:27:34;;;;;;;;;;;;;;;28.34;47.98;99756.38;5048103;28;19925;-85
2022/06/02 06:30:16;;;;;;;;;;;;;;;28.58;44.74;99747.91;5047813;28;20402;-85
2022/06/02 06:33:00;;;;;;;;;;;;;;;28.76;46.52;99750.81;5047549;28;19923;-85
2022/06/02 06:35:28;;;;;;;;;;;;;;;29.26;46.48;99748.09;5047513;28;19974;-84
2022/06/02 06:38:06;;;;;;;;;;;;;;;28.45;44.25;99748.13;5047997;28;20020;-85
2022/06/02 06:40:50;;;;;;;;;;;;;;;29.36;44.92;99750.81;5047375;28;19924;-85
2022/06/02 06:43:18;;;;;;;;;;;;;;;30.12;42.24;99744.59;5047235;28;19924;-85
2022/06/02 06:45:46;;;;;;;;;;;;;;;30.26;42.92;99740.53;5047593;28;20043;-85
2022/06/02 06:48:32;;;;;;;;;;;;;;;29.68;42.70;99746.94;5029227;28;19947;-84
2022/06/02 06:51:04;;;;;;;;;;;;;;;29.61;41.93;99749.38;5047549;28;19921;-85
2022/06/02 06:53:47;;;;;;;;;;;;;;;29.38;42.36;99743.38;5047030;28;20003;-85
2022/06/02 06:56:18;;;;;;;;;;;;;;;29.84;43.61;99743.63;5046658;28;19927;-85
2022/06/02 06:59:03;;;;;;;;;;;;;;;30.19;43.51;99739.41;5046895;28;19912;-85
2022/06/02 07:01:51;;;;;;;;;;;;;;;30.53;42.89;99747.88;5045648;28;20003;-85
2022/06/02 07:04:30;;;;;;;;;;;;;;;31.04;39.69;99744.75;5038491;28;19921;-85
2022/06/02 07:07:01;;;;;;;;;;;;;;;30.71;40.49;99723.44;5046435;28;19952;-86
2022/06/02 07:09:41;;;;;;;;;;;;;;;31.72;40.76;99740.63;5047097;28;20413;-83
2022/06/02 07:15:18;;;;;;;;;;;;;;;31.99;41.20;99744.22;5046754;28;20405;-83
2022/06/02 07:17:54;;;;;;;;;;;;;;;31.87;40.71;99747.22;5046463;28;20015;-84
2022/06/02 07:20:25;;;;;;;;;;;;;;;32.23;41.20;99749.88;5047103;28;19913;-82
2022/06/02 07:22:56;;;;;;;;;;;;;;;31.62;39.03;99751.63;5028130;28;19974;-82
2022/06/02 07:25:22;;;;;;;;;;;;;;;31.68;39.82;99750.97;5029142;28;20305;-83
2022/06/02 07:28:07;;;;;;;;;;;;;;;31.31;39.82;99753.88;5046524;28;19921;-83
2022/06/02 07:30:32;;;;;;;;;;;;;;;31.30;38.91;99749.44;5046697;28;20038;-83
2022/06/02 07:33:03;;;;;;;;;;;;;;;32.04;40.05;99753.66;5028641;28;19942;-83
2022/06/02 07:35:28;;;;;;;;;;;;;;;32.42;38.29;99753.38;5029152;28;20003;-83
2022/06/02 07:38:06;;;;;;;;;;;;;;;32.38;37.70;99752.84;5046137;28;20015;-83
2022/06/02 07:40:40;;;;;;;;;;;;;;;32.56;38.03;99754.63;5046887;28;20011;-83
2022/06/02 07:43:14;;;;;;;;;;;;;;;32.62;37.48;99763.00;5046078;28;19919;-83
2022/06/02 07:45:49;;;;;;;;;;;;;;;33.15;36.73;99761.00;5047087;28;19982;-83
2022/06/02 07:48:14;;;;;;;;;;;;;;;33.60;37.67;99753.41;5045508;28;19917;-83
2022/06/02 07:50:58;;;;;;;;;;;;;;;33.00;37.23;99755.31;5046830;28;20493;-83
2022/06/02 07:53:23;;;;;;;;;;;;;;;32.74;36.95;99754.56;5046532;28;19949;-83
2022/06/02 07:56:10;;;;;;;;;;;;;;;32.95;37.27;99749.53;5045880;28;20484;-83
2022/06/02 07:58:58;;;;;;;;;;;;;;;33.16;37.00;99754.50;5047433;28;19916;-83
2022/06/02 08:01:23;;;;;;;;;;;;;;;32.98;36.85;99753.78;5050169;28;19924;-85
2022/06/02 08:03:55;;;;;;;;;;;;;;;32.80;37.09;99745.72;5031949;28;20383;-83
2022/06/02 08:06:20;;;;;;;;;;;;;;;32.21;38.92;99742.84;5050896;28;19927;-85
2022/06/02 08:08:51;;;;;;;;;;;;;;;32.81;37.89;99739.22;5049795;28;19916;-83
2022/06/02 08:11:19;;;;;;;;;;;;;;;32.92;36.63;99740.78;5050406;28;20011;-85
2022/06/02 08:13:45;;;;;;;;;;;;;;;32.37;38.97;99740.22;5049623;28;19917;-85
2022/06/02 08:16:16;;;;;;;;;;;;;;;33.10;37.21;99740.66;5050255;28;19912;-85
2022/06/02 08:18:51;;;;;;;;;;;;;;;32.90;36.90;99726.44;5031138;28;19952;-85
2022/06/02 08:21:21;;;;;;;;;;;;;;;33.40;34.07;99730.13;5049987;28;19919;-83
2022/06/02 08:24:07;;;;;;;;;;;;;;;33.46;36.54;99732.19;5049528;28;20390;-83
2022/06/02 08:26:49;;;;;;;;;;;;;;;32.77;36.98;99727.78;5049339;28;19920;-83
2022/06/02 08:29:24;;;;;;;;;;;;;;;33.65;36.51;99723.66;5012539;28;19952;-83
2022/06/02 08:32:08;;;;;;;;;;;;;;;33.86;35.03;99725.88;5029617;28;19947;-83
2022/06/02 08:34:48;;;;;;;;;;;;;;;34.88;33.70;99724.34;5029645;28;20322;-83
2022/06/02 08:37:23;;;;;;;;;;;;;;;34.41;33.92;99724.22;5029975;28;19923;-83
2022/06/02 08:39:48;;;;;;;;;;;;;;;34.93;34.92;99719.22;5030086;28;19917;-83
2022/06/02 08:42:20;;;;;;;;;;;;;;;34.88;32.69;99729.84;5030322;28;20361;-82
2022/06/02 08:44:45;;;;;;;;;;;;;;;34.77;36.03;99721.00;5030310;28;19955;-82
2022/06/02 08:47:29;;;;;;;;;;;;;;;35.00;36.51;99722.91;5029583;28;20338;-83
2022/06/02 08:50:12;;;;;;;;;;;;;;;35.00;34.10;99719.34;5029320;28;19936;-84
2022/06/02 08:52:49;;;;;;;;;;;;;;;35.27;31.34;99721.56;5029679;28;19921;-82
2022/06/02 08:55:14;;;;;;;;;;;;;;;34.21;34.82;99720.16;5029591;28;19917;-82
2022/06/02 08:57:43;;;;;;;;;;;;;;;34.20;36.20;99722.03;5029818;28;19939;-82
2022/06/02 09:00:31;;;;;;;;;;;;;;;34.51;31.93;99724.03;5029308;28;19924;-83
2022/06/02 09:03:14;;;;;;;;;;;;;;;34.75;31.28;99730.41;5029457;28;19947;-82
2022/06/02 09:05:49;;;;;;;;;;;;;;;34.50;29.99;99724.19;5029326;28;19917;-83
2022/06/02 09:08:33;;;;;;;;;;;;;;;34.16;31.13;99719.84;5029808;28;19917;-82
2022/06/02 09:10:58;;;;;;;;;;;;;;;34.32;31.56;99714.31;5029095;28;19924;-83
2022/06/02 09:13:29;;;;;;;;;;;;;;;34.39;32.76;99729.03;5029450;28;20314;-83
2022/06/02 09:16:10;;;;;;;;;;;;;;;34.91;31.28;99726.75;5029375;28;19924;-84
2022/06/02 09:18:54;;;;;;;;;;;;;;;35.08;32.24;99722.88;5029350;28;19959;-83
2022/06/02 09:21:25;;;;;;;;;;;;;;;35.04;30.52;99717.94;5011196;28;20326;-84
2022/06/02 09:24:09;;;;;;;;;;;;;;;34.95;30.72;99722.63;5028883;28;19921;-83
2022/06/02 09:26:46;;;;;;;;;;;;;;;34.74;30.82;99724.06;5028396;28;19924;-83
2022/06/02 09:29:30;;;;;;;;;;;;;;;34.60;30.89;99724.81;5048700;28;19990;-83
2022/06/02 09:31:56;;;;;;;;;;;;;;;34.26;30.66;99715.03;5047906;28;19920;-83
2022/06/02 09:34:24;;;;;;;;;;;;;;;34.40;30.62;99713.44;5048624;28;19916;-83
2022/06/02 09:36:53;;;;;;;;;;;;;;;34.44;30.26;99718.38;5031310;28;19998;-83
2022/06/02 09:39:18;;;;;;;;;;;;;;;34.26;32.84;99706.81;5029884;28;20322;-83
2022/06/02 09:41:46;;;;;;;;;;;;;;;34.59;31.79;99707.53;5048700;28;19919;-83
2022/06/02 09:44:12;;;;;;;;;;;;;;;34.60;30.14;99705.66;5047790;28;19936;-83
2022/06/02 09:46:40;;;;;;;;;;;;;;;34.68;29.89;99702.88;5048500;28;20394;-83
2022/06/02 09:49:18;;;;;;;;;;;;;;;34.90;29.77;99709.47;5047485;28;19927;-83
2022/06/02 09:52:02;;;;;;;;;;;;;;;34.94;29.41;99701.72;5047582;28;19944;-83
2022/06/02 09:54:44;;;;;;;;;;;;;;;34.94;30.55;99701.72;5048076;28;19917;-83
2022/06/02 10:00:19;;;;;;;;;;;;;;;35.00;30.77;99698.25;5047773;28;20013;-82
2022/06/02 10:02:47;;;;;;;;;;;;;;;35.04;31.09;99699.59;5047820;28;20541;-83
2022/06/02 10:05:22;;;;;;;;;;;;;;;35.40;28.89;99703.66;5048525;28;19924;-83
2022/06/02 10:08:06;;;;;;;;;;;;;;;35.26;30.90;99695.19;5047579;28;19917;-82
2022/06/02 10:10:51;;;;;;;;;;;;;;;34.78;31.09;99703.53;5048219;28;19924;-82
2022/06/02 10:13:37;;;;;;;;;;;;;;;34.27;31.99;99691.25;5046458;28;19925;-82
2022/06/02 10:16:05;;;;;;;;;;;;;;;33.97;35.29;99685.50;5033887;28;20358;-83
2022/06/02 10:18:37;;;;;;;;;;;;;;;34.07;32.94;99689.75;5045287;28;19946;-83
2022/06/02 10:21:05;;;;;;;;;;;;;;;34.63;30.75;99697.06;5047177;28;19917;-84
2022/06/02 10:23:49;;;;;;;;;;;;;;;35.05;29.03;99689.47;5027678;28;19962;-83
2022/06/02 10:26:41;;;;;;;;;;;;;;;34.75;29.68;99690.19;5029913;28;19982;-83
2022/06/02 10:29:10;;;;;;;;;;;;;;;34.66;30.60;99691.22;5066416;28;19925;-82
2022/06/02 10:31:53;;;;;;;;;;;;;;;34.72;31.04;99676.81;5066891;28;19923;-83
2022/06/02 10:34:34;;;;;;;;;;;;;;;34.43;31.34;99680.22;5067130;28;19916;-83
2022/06/02 10:37:22;;;;;;;;;;;;;;;34.74;29.76;99671.16;5067584;28;19917;-83
2022/06/02 10:40:02;;;;;;;;;;;;;;;34.70;29.76;99672.56;5048427;28;19925;-83
2022/06/02 10:42:30;;;;;;;;;;;;;;;34.92;32.00;99668.19;5046773;28;20031;-83
2022/06/02 10:45:17;;;;;;;;;;;;;;;35.47;26.54;99656.09;5047170;28;19917;-84
2022/06/02 10:47:48;;;;;;;;;;;;;;;35.27;29.15;99665.91;5046599;28;19999;-84
2022/06/02 10:50:49;;;;;;;;;;;;;;;35.04;28.30;99657.66;5047485;28;19939;-83
2022/06/02 10:53:33;;;;;;;;;;;;;;;35.13;27.11;99662.03;4965801;28;20071;-84
2022/06/02 10:56:01;;;;;;;;;;;;;;;35.61;27.30;99648.94;5040269;28;19912;-84
2022/06/02 10:58:29;;;;;;;;;;;;;;;35.65;27.71;99652.16;5047854;28;20439;-83
2022/06/02 11:01:04;;;;;;;;;;;;;;;35.88;27.41;99649.38;5047458;28;19966;-84
2022/06/02 11:03:29;;;;;;;;;;;;;;;35.19;29.76;99644.84;5047876;28;19944;-83
2022/06/02 11:06:13;;;;;;;;;;;;;;;35.76;25.95;99638.03;5047416;28;19948;-83
2022/06/02 11:08:47;;;;;;;;;;;;;;;35.92;26.58;99642.47;5047336;28;19917;-84
2022/06/02 11:11:37;;;;;;;;;;;;;;;35.14;26.98;99650.91;5047364;28;20428;-83
2022/06/02 11:14:18;;;;;;;;;;;;;;;34.88;26.87;99639.44;5047443;28;20010;-84
2022/06/02 11:17:03;;;;;;;;;;;;;;;34.83;28.74;99631.75;5047290;28;19917;-85
2022/06/02 11:19:28;;;;;;;;;;;;;;;35.36;26.91;99628.28;5046834;28;19913;-83
2022/06/02 11:22:08;;;;;;;;;;;;;;;35.32;29.11;99630.53;5047046;28;20306;-82
2022/06/02 11:24:46;;;;;;;;;;;;;;;35.39;28.43;99631.53;5047129;28;20030;-83
2022/06/02 11:27:30;;;;;;;;;;;;;;;35.60;27.43;99625.28;5046996;28;19920;-83
2022/06/02 11:30:04;;;;;;;;;;;;;;;34.81;27.96;99625.63;5047363;28;19916;-84
2022/06/02 11:32:39;;;;;;;;;;;;;;;34.78;28.22;99628.72;5046942;28;19943;-84
2022/06/02 11:35:16;;;;;;;;;;;;;;;34.95;26.83;99621.22;5050983;28;19916;-85
2022/06/02 11:37:42;;;;;;;;;;;;;;;35.01;26.02;99620.50;5050791;28;19912;-85
2022/06/02 11:40:19;;;;;;;;;;;;;;;35.19;25.84;99617.44;5050676;28;19936;-83
2022/06/02 11:43:03;;;;;;;;;;;;;;;35.52;24.70;99616.31;5050909;28;20305;-84
2022/06/02 11:45:31;;;;;;;;;;;;;;;35.42;25.65;99608.34;5033380;28;19917;-83
2022/06/02 11:48:06;;;;;;;;;;;;;;;35.03;25.68;99610.19;5050199;28;19924;-83
2022/06/02 11:50:49;;;;;;;;;;;;;;;35.17;26.38;99602.22;5050977;28;19919;-84
2022/06/02 11:53:15;;;;;;;;;;;;;;;34.40;27.76;99601.19;5050031;28;19913;-85
2022/06/02 11:55:49;;;;;;;;;;;;;;;34.79;26.44;99603.03;5050125;28;20382;-84
2022/06/02 11:58:33;;;;;;;;;;;;;;;34.93;26.11;99604.97;5047842;28;19913;-85
2022/06/02 12:01:12;;;;;;;;;;;;;;;34.61;26.88;99611.50;5040506;28;19916;-83
2022/06/02 12:03:40;;;;;;;;;;;;;;;34.55;27.16;99596.66;5049020;28;20434;-84
2022/06/02 12:06:08;;;;;;;;;;;;;;;34.22;27.27;99595.97;5050997;28;19923;-84
2022/06/02 12:08:36;;;;;;;;;;;;;;;34.78;28.04;99595.84;5050325;28;19978;-84
2022/06/02 12:11:11;;;;;;;;;;;;;;;34.87;27.47;99591.19;5050394;28;20402;-84
2022/06/02 12:13:44;;;;;;;;;;;;;;;35.25;28.45;99589.28;5049127;28;19924;-84
2022/06/02 12:16:21;;;;;;;;;;;;;;;35.54;26.60;99584.06;5050033;28;19940;-84
2022/06/02 12:18:47;;;;;;;;;;;;;;;35.78;27.36;99585.72;5049393;28;20702;-84
2022/06/02 12:21:15;;;;;;;;;;;;;;;36.11;27.06;99582.56;5049664;28;20015;-85
2022/06/02 12:23:59;;;;;;;;;;;;;;;36.07;25.16;99573.88;5049604;28;19966;-84
2022/06/02 12:26:42;;;;;;;;;;;;;;;36.45;25.70;99570.94;5049066;28;19923;-84
2022/06/02 12:29:28;;;;;;;;;;;;;;;36.36;27.15;99577.59;5030003;28;19948;-84
2022/06/02 12:32:12;;;;;;;;;;;;;;;36.35;26.57;99568.53;5028643;28;19924;-84
2022/06/02 12:34:40;;;;;;;;;;;;;;;35.96;27.29;99564.22;5029581;28;20422;-84
2022/06/02 12:37:17;;;;;;;;;;;;;;;35.69;25.09;99560.22;5029831;28;20326;-85
2022/06/02 12:39:57;;;;;;;;;;;;;;;35.53;26.20;99560.41;5029557;28;19935;-84
2022/06/02 12:42:34;;;;;;;;;;;;;;;34.88;26.68;99557.25;5011837;28;19927;-84
2022/06/02 12:44:59;;;;;;;;;;;;;;;35.00;26.13;99547.53;5028852;28;19913;-84
2022/06/02 12:47:42;;;;;;;;;;;;;;;35.23;26.69;99554.88;5029668;28;19924;-84
2022/06/02 12:50:10;;;;;;;;;;;;;;;35.02;26.93;99552.84;5011919;28;19920;-84
2022/06/02 12:52:59;;;;;;;;;;;;;;;34.78;26.40;99554.75;5029814;28;19917;-84
2022/06/02 12:55:30;;;;;;;;;;;;;;;35.35;28.40;99547.09;5029238;28;19913;-84
2022/06/02 12:57:59;;;;;;;;;;;;;;;35.62;27.50;99551.94;5029420;28;20409;-84
2022/06/02 13:00:54;;;;;;;;;;;;;;;35.84;25.69;99552.03;5029434;28;19917;-84
2022/06/02 13:03:22;;;;;;;;;;;;;;;36.23;26.24;99541.75;4941980;28;20025;-84
2022/06/02 13:06:05;;;;;;;;;;;;;;;35.98;27.24;99542.09;5029713;28;19928;-85
2022/06/02 13:08:49;;;;;;;;;;;;;;;35.82;27.04;99540.38;5029959;28;19944;-84
2022/06/02 13:11:38;;;;;;;;;;;;;;;35.10;27.92;99539.94;5029825;28;20439;-84
2022/06/02 13:14:04;;;;;;;;;;;;;;;34.14;28.85;99533.94;5011501;28;20361;-83
2022/06/02 13:16:48;;;;;;;;;;;;;;;34.08;28.59;99529.19;5029619;28;20012;-84
2022/06/02 13:19:31;;;;;;;;;;;;;;;33.89;29.53;99536.78;5028643;28;19913;-84
2022/06/02 13:22:07;;;;;;;;;;;;;;;34.10;30.47;99532.56;5029304;28;20450;-84
2022/06/02 13:24:32;;;;;;;;;;;;;;;34.36;29.20;99536.91;5028987;28;20453;-83
2022/06/02 13:27:03;;;;;;;;;;;;;;;34.32;29.10;99530.09;5031480;28;19967;-85
2022/06/02 13:29:31;;;;;;;;;;;;;;;34.49;29.99;99530.81;5049107;28;19966;-86
2022/06/02 13:32:06;;;;;;;;;;;;;;;34.77;30.19;99526.53;5049390;28;19921;-86
2022/06/02 13:34:57;;;;;;;;;;;;;;;34.75;30.50;99531.31;5048370;28;19971;-86
2022/06/02 13:37:41;;;;;;;;;;;;;;;34.64;30.03;99518.03;5048554;28;19940;-85
2022/06/02 13:40:19;;;;;;;;;;;;;;;34.87;28.19;99518.03;5028930;28;20284;-86
2022/06/02 13:42:47;;;;;;;;;;;;;;;34.94;27.35;99510.81;5028463;28;19960;-87